Latest Weather Observations for Cape Sorell

IDT60801

Issued at 11:21 pm EST Monday 20 May 2019 (issued every 10 minutes, with the page automatically refreshed every 10 minutes)

About weather observations | Map of weather stations | Latest weather observations for TAS | Other Formats
Station Details ID: 097000 Name: CAPE SORELL Lat: -42.20 Lon: 145.17 Height: 19.3 m
Data from the previous 72 hours. | See also: Recent months at Cape Sorell
Date/Time
EST
Temp
°C
App
Temp
°C
Dew
Point
°C
Rel
Hum
%
Delta-T
°C
Wind Press
QNH
hPa
Press
MSL
hPa
Rain since
9am
mm
Dir  Spd
km/h
Gust
km/h
Spd
kts
Gust
kts
20/11:00pm 13.9 5.6 12.5 91 0.8 NW 48 59 26 32 1011.7 1011.8 9.2
20/10:30pm 14.0 7.1 12.7 92 0.7 NNW 41 61 22 33 1011.7 1011.8 9.0
20/10:02pm 14.1 7.6 12.8 92 0.7 NNW 39 59 21 32 1011.5 1011.6 9.0
20/10:00pm 14.0 7.4 12.7 92 0.7 NNW 39 54 21 29 1011.6 1011.7 9.0
20/09:34pm 13.6 6.9 12.2 91 0.8 NNW 39 59 21 32 1012.0 1012.1 6.8
20/09:30pm 13.5 5.4 12.1 91 0.8 N 46 63 25 34 1011.8 1011.9 6.2
20/09:00pm 14.3 5.7 11.6 84 1.4 N 48 57 26 31 1011.5 1011.6 1.2
20/08:30pm 14.9 7.3 11.7 81 1.7 N 43 50 23 27 1012.0 1012.1 1.0
20/08:00pm 14.7 7.1 11.8 83 1.6 N 43 56 23 30 1012.4 1012.5 1.0
20/07:30pm 14.6 8.2 12.1 85 1.4 N 37 44 20 24 1012.6 1012.7 1.0
20/07:00pm 14.6 7.7 11.7 83 1.6 N 39 50 21 27 1012.6 1012.7 0.6
20/06:30pm 14.9 8.4 11.7 81 1.7 N 37 43 20 23 1012.7 1012.8 0.6
20/06:00pm 14.7 9.2 11.8 83 1.6 NNE 32 39 17 21 1012.8 1012.9 0.6
20/05:30pm 14.7 8.9 11.5 81 1.7 NNE 33 41 18 22 1013.0 1013.1 0.6
20/05:00pm 14.6 7.6 11.4 81 1.7 NNE 39 46 21 25 1012.9 1013.0 0.6
20/04:30pm 14.8 9.1 11.8 82 1.6 NNE 33 41 18 22 1013.0 1013.1 0.6
20/04:00pm 15.0 7.3 11.6 80 1.8 NNE 43 52 23 28 1012.8 1012.9 0.6
20/03:30pm 15.1 9.0 11.7 80 1.8 NNE 35 43 19 23 1013.1 1013.2 0.6
20/03:00pm 15.3 7.5 11.3 77 2.1 N 43 50 23 27 1013.3 1013.4 0.6
20/02:40pm 15.3 7.9 11.1 76 2.2 N 41 56 22 30 1013.3 1013.4 0.6
20/02:30pm 15.5 9.6 11.1 75 2.4 N 33 39 18 21 1013.3 1013.4 0.6
20/02:00pm 15.1 10.2 11.3 78 2.0 NNE 28 33 15 18 1013.0 1013.1 0.6
20/01:30pm 14.7 9.0 11.1 79 1.9 NE 32 37 17 20 1013.5 1013.6 0.6
20/01:00pm 14.4 6.3 10.8 79 1.9 NNE 44 54 24 29 1013.7 1013.8 0.6
20/12:30pm 13.8 5.5 11.3 85 1.3 NE 46 56 25 30 1014.1 1014.2 0.6
20/12:00pm 13.7 5.6 10.9 83 1.5 NE 44 54 24 29 1014.9 1015.0 0.2
20/11:30am 14.3 5.8 10.5 78 2.0 NNE 46 56 25 30 1016.1 1016.1 0.0
20/11:00am 14.5 5.5 10.1 75 2.3 NNE 48 59 26 32 1016.4 1016.4 0.0
20/10:30am 14.5 6.4 10.1 75 2.3 NNE 43 50 23 27 1016.9 1016.9 0.0
20/10:22am 14.3 7.2 9.7 74 2.4 NNE 37 50 20 27 1017.1 1017.1 0.0
20/10:00am 14.7 10.5 9.7 72 2.6 NNE 22 30 12 16 1017.8 1017.8 0.0
20/09:30am 14.5 11.6 9.7 73 2.5 NE 15 19 8 10 1017.9 1017.9 0.0
20/09:00am 14.7 9.3 9.5 71 2.7 NNE 28 35 15 19 1018.3 1018.3 0.2
20/08:30am 15.0 8.9 9.6 70 2.8 NNE 32 37 17 20 1018.3 1018.3 0.2
20/08:00am 14.6 8.3 9.6 72 2.6 NNE 33 39 18 21 1018.2 1018.2 0.2
20/07:30am 14.4 8.1 9.8 74 2.4 NE 33 41 18 22 1018.1 1018.1 0.2
20/07:00am 14.3 9.0 9.7 74 2.4 NNE 28 35 15 19 1018.9 1018.9 0.2
20/06:30am 14.4 8.1 9.8 74 2.4 NNE 33 37 18 20 1019.1 1019.1 0.2
20/06:00am 14.2 9.7 10.0 76 2.2 NNE 24 32 13 17 1019.5 1019.5 0.2
20/05:30am 14.4 9.8 9.8 74 2.4 NNE 24 28 13 15 1019.8 1019.8 0.2
20/05:00am 14.4 10.3 10.0 75 2.3 NNE 22 28 12 15 1019.9 1019.9 0.2
20/04:30am 14.3 9.0 9.9 75 2.3 NNE 28 32 15 17 1020.0 1020.0 0.2
20/04:00am 14.2 8.5 9.8 75 2.3 NE 30 35 16 19 1020.2 1020.2 0.2
20/03:30am 14.1 9.2 10.1 77 2.1 NE 26 32 14 17 1020.6 1020.6 0.2
20/03:00am 14.1 8.4 9.9 76 2.2 NNE 30 37 16 20 1020.8 1020.8 0.2
20/02:30am 13.8 10.1 9.5 75 2.2 NE 19 26 10 14 1021.1 1021.1 0.2
20/02:00am 12.8 10.1 8.9 77 2.0 NE 13 19 7 10 1021.3 1021.3 0.2
20/01:30am 12.2 8.7 8.7 79 1.7 ENE 17 20 9 11 1021.3 1021.3 0.2
20/01:00am 11.8 7.9 8.5 80 1.6 ENE 19 20 10 11 1021.4 1021.4 0.2
20/12:30am 11.8 7.3 8.5 80 1.6 ENE 22 26 12 14 1021.6 1021.6 0.2
20/12:00am 11.6 7.0 8.3 80 1.6 ENE 22 26 12 14 1021.8 1021.8 0.2
 
Date/Time
EST
Temp
°C
App
Temp
°C
Dew
Point
°C
Rel
Hum
%
Delta-T
°C
Wind Press
QNH
hPa
Press
MSL
hPa
Rain since
9am
mm
Dir  Spd
km/h
Gust
km/h
Spd
kts
Gust
kts
19/11:30pm 12.0 7.5 8.5 79 1.7 ENE 22 26 12 14 1022.0 1022.0 0.2
19/11:00pm 12.0 7.9 8.5 79 1.7 NE 20 24 11 13 1022.3 1022.3 0.2
19/10:30pm 12.6 8.5 8.7 77 1.9 NE 20 28 11 15 1022.6 1022.6 0.2
19/10:00pm 12.4 8.7 9.6 83 1.4 NE 19 24 10 13 1023.0 1023.0 0.2
19/09:30pm 12.2 8.4 8.9 80 1.7 ENE 19 24 10 13 1023.3 1023.3 0.2
19/09:00pm 12.2 9.2 9.2 82 1.5 ENE 15 17 8 9 1023.6 1023.6 0.2
19/08:30pm 13.2 10.3 9.6 79 1.8 NE 15 22 8 12 1023.6 1023.6 0.2
19/08:00pm 13.2 10.3 9.8 80 1.7 NE 15 19 8 10 1023.9 1023.9 0.2
19/07:30pm 13.5 10.2 9.6 77 2.0 NE 17 20 9 11 1024.0 1024.0 0.2
19/07:00pm 13.5 10.4 9.0 74 2.3 NE 15 20 8 11 1024.2 1024.2 0.2
19/06:30pm 12.5 9.2 8.0 74 2.2 ENE 15 19 8 10 1024.1 1024.1 0.2
19/06:00pm 12.0 8.2 7.5 74 2.2 E 17 19 9 10 1023.8 1023.8 0.2
19/05:30pm 12.3 9.7 7.6 73 2.3 E 11 13 6 7 1023.8 1023.8 0.2
19/05:00pm 12.6 10.4 7.9 73 2.3 E 9 11 5 6 1023.9 1023.9 0.2
19/04:30pm 13.8 12.7 8.6 71 2.6 E 4 6 2 3 1024.6 1024.6 0.2
19/04:00pm 14.7 13.8 9.3 70 2.8 ESE 4 4 2 2 1024.7 1024.7 0.0
19/03:30pm 14.9 14.5 8.4 65 3.3 CALM 0 0 0 0 1024.9 1024.9 0.0
19/03:00pm 15.6 14.4 7.9 60 3.8 NNE 4 6 2 3 1025.1 1025.1 0.0
19/02:30pm 15.4 14.2 7.9 61 3.8 NNE 4 6 2 3 1025.4 1025.4 0.0
19/02:00pm 15.6 14.1 8.4 62 3.6 NNE 6 6 3 3 1025.8 1025.8 0.0
19/01:30pm 15.4 13.5 8.9 65 3.3 NE 9 11 5 6 1026.1 1026.1 0.0
19/01:00pm 15.2 13.2 8.7 65 3.3 NE 9 13 5 7 1026.4 1026.4 0.0
19/12:30pm 15.0 13.2 9.4 69 2.9 NE 9 13 5 7 1026.7 1026.7 0.0
19/12:00pm 14.0 11.8 10.8 81 1.7 NE 13 17 7 9 1027.2 1027.2 0.0
19/11:30am 12.7 10.6 11.1 90 0.8 ENE 13 17 7 9 1027.7 1027.7 0.0
19/11:00am 11.8 9.3 11.0 95 0.4 ENE 15 20 8 11 1028.1 1028.1 0.0
19/10:30am 9.9 7.2 9.1 95 0.4 ENE 13 17 7 9 1028.2 1028.2 0.0
19/10:00am 9.7 6.7 9.1 96 0.3 ENE 15 20 8 11 1028.4 1028.4 0.0
19/09:30am 9.6 6.6 9.1 97 0.2 ENE 15 20 8 11 1028.5 1028.5 0.0
19/09:00am 9.0 5.5 8.6 97 0.2 ENE 17 22 9 12 1028.7 1028.7 0.4
19/08:30am 8.3 4.6 7.9 97 0.2 ENE 17 20 9 11 1028.6 1028.6 0.4
19/08:00am 8.1 5.1 7.7 97 0.2 E 13 17 7 9 1028.7 1028.7 0.4
19/07:30am 7.9 4.1 7.5 97 0.2 E 17 20 9 11 1028.6 1028.6 0.4
19/07:00am 8.1 5.5 7.7 97 0.2 ENE 11 15 6 8 1028.7 1028.7 0.4
19/06:30am 8.4 5.9 8.0 97 0.2 E 11 17 6 9 1028.4 1028.4 0.4
19/06:00am 8.6 5.7 8.2 97 0.2 E 13 19 7 10 1028.3 1028.3 0.4
19/05:30am 8.6 5.0 8.2 97 0.2 E 17 22 9 12 1028.0 1028.0 0.4
19/05:00am 8.5 4.4 7.9 96 0.3 E 19 24 10 13 1027.9 1027.9 0.4
19/04:30am 8.8 5.2 8.2 96 0.3 E 17 22 9 12 1028.3 1028.3 0.2
19/04:00am 9.0 5.0 8.4 96 0.3 E 19 24 10 13 1028.2 1028.2 0.2
19/03:30am 8.7 4.5 8.1 96 0.3 E 20 26 11 14 1028.5 1028.5 0.2
19/03:00am 8.8 4.2 8.2 96 0.3 ESE 22 26 12 14 1028.6 1028.6 0.2
19/02:30am 8.8 5.1 8.0 95 0.4 E 17 20 9 11 1029.0 1029.0 0.2
19/02:00am 9.0 5.4 8.2 95 0.4 E 17 17 9 9 1029.4 1029.4 0.2
19/01:30am 9.5 6.0 8.7 95 0.4 E 17 17 9 9 1029.3 1029.3 0.2
19/01:00am 9.5 6.0 8.7 95 0.4 E 17 19 9 10 1029.5 1029.5 0.2
19/12:30am 9.7 7.0 8.8 94 0.4 ENE 13 17 7 9 1030.0 1030.0 0.2
19/12:00am 10.2 8.0 9.3 94 0.4 E 11 17 6 9 1030.0 1030.0 0.2
 
Date/Time
EST
Temp
°C
App
Temp
°C
Dew
Point
°C
Rel
Hum
%
Delta-T
°C
Wind Press
QNH
hPa
Press
MSL
hPa
Rain since
9am
mm
Dir  Spd
km/h
Gust
km/h
Spd
kts
Gust
kts
18/11:30pm 10.5 8.3 9.4 93 0.5 ESE 11 15 6 8 1030.0 1030.0 0.2
18/11:00pm 10.3 8.4 9.2 93 0.5 ENE 9 11 5 6 1030.2 1030.2 0.2
18/10:30pm 10.3 8.4 9.1 92 0.6 ENE 9 11 5 6 1030.1 1030.1 0.2
18/10:00pm 10.4 8.9 9.2 92 0.6 ENE 7 9 4 5 1030.1 1030.1 0.2
18/09:30pm 11.0 8.5 9.6 91 0.7 E 13 13 7 7 1030.0 1030.0 0.2
18/09:00pm 11.2 9.1 9.6 90 0.8 ESE 11 13 6 7 1029.9 1029.9 0.2
18/08:30pm 10.9 9.4 9.2 89 0.8 SSE 7 9 4 5 1029.8 1029.8 0.2
18/08:00pm 11.2 10.0 9.5 89 0.8 SSE 6 7 3 4 1029.7 1029.7 0.2
18/07:30pm 11.4 10.0 9.7 89 0.9 SSE 7 7 4 4 1029.6 1029.6 0.2
18/07:00pm 12.2 11.2 10.3 88 1.0 S 6 6 3 3 1029.6 1029.6 0.2
18/06:30pm 12.8 12.6 10.5 86 1.2 S 2 4 1 2 1029.5 1029.5 0.2
18/06:00pm 12.7 12.4 10.2 85 1.3 SSW 2 4 1 2 1029.2 1029.2 0.2
18/05:30pm 12.9 11.9 10.3 84 1.3 SW 6 6 3 3 1029.0 1029.0 0.2
18/05:00pm 13.5 12.9 10.3 81 1.6 SSW 4 6 2 3 1028.9 1028.9 0.2
18/04:30pm 14.4 13.3 10.8 79 1.9 SSW 7 9 4 5 1029.0 1029.0 0.2
18/04:00pm 15.1 13.9 11.5 79 1.9 SW 9 11 5 6 1029.1 1029.1 0.2
18/03:30pm 15.3 14.7 11.7 79 1.9 WSW 6 7 3 4 1029.0 1029.0 0.2
18/03:00pm 16.4 15.9 12.0 75 2.4 W 6 9 3 5 1029.0 1029.0 0.2
18/02:30pm 16.6 15.9 12.0 74 2.5 WNW 7 9 4 5 1028.9 1028.9 0.2
18/02:00pm 17.3 16.9 13.0 76 2.4 NW 7 9 4 5 1029.1 1029.1 0.0
18/01:30pm 16.9 16.3 12.2 74 2.6 WNW 7 11 4 6 1029.2 1029.2 0.0
18/01:00pm 17.3 16.2 13.0 76 2.4 NNW 11 13 6 7 1029.2 1029.2 0.0
18/12:30pm 16.0 14.4 12.9 82 1.7 N 13 15 7 8 1029.2 1029.2 0.0
18/12:00pm 15.3 14.4 11.5 78 2.0 N 7 11 4 6 1029.7 1029.7 0.0
18/11:30am 16.3 15.4 12.5 78 2.1 NNE 9 11 5 6 1030.0 1030.0 0.0
18/11:00am 15.4 14.3 11.8 79 1.9 NNE 9 11 5 6 1030.0 1030.0 0.0
18/10:30am 14.7 13.7 11.1 79 1.9 NNE 7 9 4 5 1030.3 1030.3 0.0
18/10:00am 14.8 13.3 11.8 82 1.6 NNE 11 15 6 8 1030.0 1030.0 0.0
18/09:30am 14.0 12.0 11.5 85 1.3 NNE 13 17 7 9 1029.9 1029.9 0.0
18/09:00am 13.3 10.9 11.4 88 1.0 NNE 15 17 8 9 1029.9 1029.9 0.0
18/08:30am 12.9 11.2 11.1 89 0.9 NNE 11 13 6 7 1029.7 1029.7 0.0
18/08:00am 12.9 10.8 11.1 89 0.9 NNE 13 15 7 8 1029.5 1029.5 0.0
18/07:30am 12.9 10.8 11.3 90 0.8 NNE 13 17 7 9 1029.2 1029.2 0.0
18/07:00am 12.8 10.3 11.2 90 0.8 NNE 15 19 8 10 1028.9 1028.9 0.0
18/06:30am 12.7 10.2 11.1 90 0.8 NNE 15 19 8 10 1028.5 1028.5 0.0
18/06:00am 12.8 10.0 11.2 90 0.8 NNE 17 20 9 11 1028.2 1028.2 0.0
18/05:30am 12.8 10.3 11.2 90 0.8 NNE 15 19 8 10 1028.0 1028.0 0.0
18/05:00am 12.9 10.5 11.3 90 0.8 NNE 15 17 8 9 1028.0 1028.0 0.0
18/04:30am 12.9 10.5 11.3 90 0.8 NNE 15 19 8 10 1027.8 1027.8 0.0
18/04:00am 12.8 10.8 11.4 91 0.7 NNE 13 17 7 9 1027.7 1027.7 0.0
18/03:30am 12.7 10.3 11.3 91 0.7 NNE 15 19 8 10 1027.7 1027.7 0.0
18/03:00am 13.2 10.5 11.8 91 0.7 N 17 20 9 11 1027.5 1027.5 0.0
18/02:30am 13.6 10.7 12.2 91 0.8 N 19 22 10 12 1027.5 1027.5 0.0
18/02:00am 13.7 10.2 12.3 91 0.8 N 22 26 12 14 1027.2 1027.2 0.0
18/01:30am 13.6 9.7 12.0 90 0.9 N 24 28 13 15 1027.3 1027.3 0.0
18/01:00am 13.8 10.3 12.2 90 0.9 N 22 26 12 14 1027.3 1027.3 0.0
18/12:30am 13.8 12.0 12.0 89 1.0 NNW 13 19 7 10 1027.5 1027.5 0.0
18/12:00am 13.7 12.2 11.9 89 1.0 NNW 11 17 6 9 1027.7 1027.7 0.0
 
Date/Time
EST
Temp
°C
App
Temp
°C
Dew
Point
°C
Rel
Hum
%
Delta-T
°C
Wind Press
QNH
hPa
Press
MSL
hPa
Rain since
9am
mm
Dir  Spd
km/h
Gust
km/h
Spd
kts
Gust
kts
17/11:30pm 13.7 12.2 11.9 89 1.0 NNW 11 15 6 8 1027.8 1027.8 0.0

Other formats

Comma delimited format used in spreadsheet applications
http://www.bom.gov.au/fwo/IDT60801/IDT60801.94974.axf

JavaScript Object Notation format (JSON) in row-major order
http://www.bom.gov.au/fwo/IDT60801/IDT60801.94974.json

Data quality

Most of these data are generated automatically and are frequently updated. Quality checks on data are not normally performed. It is possible for incorrect values to appear. Refer to information at About Latest Weather Observations and please check the disclaimer before using these data.